Time;durP1;ratioP1;P1;durP2;ratioP2;P2;SDS_P1;SDS_P2;PMS_P1;PMS_P2;Temp;Humidity;BMP_temperature;BMP_pressure;BME280_temperature;BME280_humidity;BME280_pressure;Samples;Min_cycle;Max_cycle;Signal;HPM_P1;HPM_P2
2023/02/17 00:00:31;;;;;;;4.82;4.32;;;12.70;99.90;;;;;;4914220;29;20043;-81
2023/02/17 00:02:58;;;;;;;5.15;3.95;;;12.70;99.90;;;;;;4910416;29;20039;-81
2023/02/17 00:05:25;;;;;;;5.72;4.13;;;12.70;99.90;;;;;;4910054;29;20032;-80
2023/02/17 00:07:51;;;;;;;4.97;3.63;;;12.70;99.90;;;;;;4915090;29;20080;-79
2023/02/17 00:10:17;;;;;;;4.97;4.05;;;12.70;99.90;;;;;;4906628;29;20036;-80
2023/02/17 00:12:43;;;;;;;5.28;4.50;;;12.70;99.90;;;;;;4912443;29;20062;-80
2023/02/17 00:15:09;;;;;;;5.05;4.00;;;12.70;99.90;;;;;;4907993;29;20445;-80
2023/02/17 00:17:35;;;;;;;4.78;3.95;;;12.70;99.90;;;;;;4902330;29;20039;-86
2023/02/17 00:20:01;;;;;;;4.90;4.10;;;12.70;99.90;;;;;;4904126;29;20048;-85
2023/02/17 00:22:29;;;;;;;5.38;4.30;;;12.70;99.90;;;;;;4902848;29;20035;-84
2023/02/17 00:24:57;;;;;;;4.65;3.47;;;12.60;99.90;;;;;;4884825;29;20507;-85
2023/02/17 00:27:26;;;;;;;5.57;4.00;;;12.60;99.90;;;;;;4890081;29;20028;-85
2023/02/17 00:29:54;;;;;;;4.95;3.92;;;12.70;99.90;;;;;;4911339;29;20092;-85
2023/02/17 00:32:19;;;;;;;4.40;3.72;;;12.60;99.90;;;;;;4891541;29;20025;-85
2023/02/17 00:34:45;;;;;;;4.43;3.70;;;12.70;99.90;;;;;;4919253;29;20032;-85
2023/02/17 00:37:11;;;;;;;6.25;4.22;;;12.60;99.90;;;;;;4918881;29;20028;-86
2023/02/17 00:39:44;;;;;;;3.78;3.15;;;12.60;99.90;;;;;;4931204;29;20061;-87
2023/02/17 00:45:44;;;;;;;4.53;3.70;;;12.70;99.90;;;;;;4843797;29;20040;-85
2023/02/17 00:48:10;;;;;;;4.03;3.58;;;12.60;99.90;;;;;;4896334;29;20701;-85
2023/02/17 00:50:35;;;;;;;3.92;3.53;;;12.70;99.90;;;;;;4903166;29;20055;-85
2023/02/17 00:53:01;;;;;;;4.30;3.45;;;12.60;99.90;;;;;;4910423;29;20032;-83
2023/02/17 00:55:38;;;;;;;4.03;3.45;;;12.60;99.90;;;;;;4914447;29;20569;-85
2023/02/17 01:01:14;;;;;;;4.15;3.22;;;12.70;99.90;;;;;;4905711;29;20036;-85
2023/02/17 01:03:55;;;;;;;3.90;3.30;;;12.60;99.90;;;;;;4892946;29;20044;-86
2023/02/17 01:06:50;;;;;;;;;;;;;;;;;;;;;
2023/02/17 01:09:44;;;;;;;5.10;3.92;;;12.60;99.90;;;;;;4914381;29;20127;-86
2023/02/17 01:13:05;;;;;;;4.35;3.45;;;12.60;99.90;;;;;;4897018;29;20040;-85
2023/02/17 01:16:12;;;;;;;4.30;3.25;;;12.70;99.90;;;;;;4889564;29;20063;-84
2023/02/17 01:18:49;;;;;;;4.40;3.40;;;12.60;99.90;;;;;;4897301;29;20044;-88
2023/02/17 01:21:22;;;;;;;4.30;3.45;;;12.60;99.90;;;;;;4902402;29;20024;-87
2023/02/17 01:23:53;;;;;;;3.83;3.20;;;12.60;99.90;;;;;;4911039;29;20061;-83
2023/02/17 01:26:22;;;;;;;4.53;3.55;;;12.60;99.90;;;;;;4905558;29;20028;-84
2023/02/17 01:28:48;;;;;;;5.05;3.60;;;12.60;99.90;;;;;;4888654;29;20032;-83
2023/02/17 01:31:15;;;;;;;3.80;3.17;;;12.60;99.90;;;;;;4888400;29;20036;-82
2023/02/17 01:33:41;;;;;;;4.18;3.33;;;12.60;99.90;;;;;;4888877;29;20061;-84
2023/02/17 01:36:10;;;;;;;5.13;3.65;;;12.60;99.90;;;;;;4899963;29;20084;-85
2023/02/17 01:38:36;;;;;;;4.32;3.75;;;12.60;99.90;;;;;;4909562;29;20052;-85
2023/02/17 01:41:06;;;;;;;4.30;3.50;;;12.60;99.90;;;;;;4915562;29;20103;-85
2023/02/17 01:43:32;;;;;;;4.85;3.90;;;12.60;99.90;;;;;;4902983;29;20027;-82
2023/02/17 01:46:01;;;;;;;4.80;3.72;;;12.60;99.90;;;;;;4911074;29;20140;-84
2023/02/17 01:48:33;;;;;;;4.85;3.92;;;12.60;99.90;;;;;;4888590;29;20047;-83
2023/02/17 01:51:04;;;;;;;4.05;3.50;;;12.60;99.90;;;;;;4896113;29;20040;-85
2023/02/17 01:53:38;;;;;;;5.00;3.60;;;12.60;99.90;;;;;;4887986;29;20501;-81
2023/02/17 01:56:05;;;;;;;5.10;3.70;;;12.60;99.90;;;;;;4904863;29;20028;-82
2023/02/17 01:58:31;;;;;;;3.80;3.17;;;12.60;99.90;;;;;;4908488;29;20031;-82
2023/02/17 02:01:00;;;;;;;4.45;3.20;;;12.60;99.90;;;;;;4921882;29;20466;-81
2023/02/17 02:03:30;;;;;;;5.10;4.22;;;12.60;99.90;;;;;;4895660;29;20037;-81
2023/02/17 02:05:56;;;;;;;3.65;2.97;;;12.60;99.90;;;;;;4888020;29;20486;-81
2023/02/17 02:08:22;;;;;;;3.78;3.15;;;12.60;99.90;;;;;;4920083;29;20043;-80
2023/02/17 02:10:48;;;;;;;3.55;3.17;;;12.60;99.90;;;;;;4917723;29;20020;-84
2023/02/17 02:13:46;;;;;;;3.78;3.20;;;12.60;99.90;;;;;;4891687;29;20498;-87
2023/02/17 02:16:26;;;;;;;3.65;3.10;;;12.60;99.90;;;;;;4878832;29;20068;-83
2023/02/17 02:19:03;;;;;;;4.75;3.42;;;12.60;99.90;;;;;;4893930;29;20053;-82
2023/02/17 02:21:37;;;;;;;4.45;3.65;;;12.60;99.90;;;;;;4915499;29;20032;-82
2023/02/17 02:24:15;;;;;;;4.45;3.67;;;12.60;99.90;;;;;;4917665;29;20100;-81
2023/02/17 02:27:07;;;;;;;4.72;3.65;;;12.60;99.90;;;;;;4887413;29;20517;-82
2023/02/17 02:29:44;;;;;;;5.00;3.92;;;12.60;99.90;;;;;;4890713;29;20036;-80
2023/02/17 02:32:44;;;;;;;4.93;4.05;;;12.50;99.90;;;;;;4917163;29;20029;-80
2023/02/17 02:35:20;;;;;;;5.28;3.83;;;12.50;99.90;;;;;;4883422;29;20040;-81
2023/02/17 02:37:52;;;;;;;4.95;4.00;;;12.50;99.90;;;;;;4904369;29;20033;-83
2023/02/17 02:40:22;;;;;;;4.78;3.78;;;12.50;99.90;;;;;;4889323;29;20516;-83
2023/02/17 02:42:48;;;;;;;5.88;4.07;;;12.40;99.90;;;;;;4904192;29;20036;-83
2023/02/17 02:45:18;;;;;;;4.93;3.90;;;12.40;99.90;;;;;;4911001;29;20505;-82
2023/02/17 02:47:55;;;;;;;5.25;4.10;;;12.50;99.90;;;;;;4898687;29;20043;-82
2023/02/17 02:50:35;;;;;;;5.25;3.97;;;12.40;99.90;;;;;;4887431;29;20032;-82
2023/02/17 02:53:07;;;;;;;4.70;3.63;;;12.40;99.90;;;;;;4889433;29;20036;-83
2023/02/17 02:55:41;;;;;;;5.00;3.85;;;12.50;99.90;;;;;;4922441;29;20442;-82
2023/02/17 02:58:22;;;;;;;4.97;3.90;;;12.40;99.90;;;;;;4920853;29;20052;-82
2023/02/17 03:02:34;;;;;;;;;;;;;;;;;;;;;
2023/02/17 03:05:22;;;;;;;;;;;;;;;;;;;;;
2023/02/17 03:11:32;;;;;;;;;;;12.40;99.90;;;;;;4858732;29;20409;-83
2023/02/17 03:14:11;;;;;;;2.90;2.58;;;12.40;99.90;;;;;;4905216;29;19911;-81
2023/02/17 03:16:39;;;;;;;3.40;2.70;;;12.40;99.90;;;;;;4911720;29;20036;-81
2023/02/17 03:19:05;;;;;;;3.83;3.25;;;12.40;99.90;;;;;;4905385;29;20032;-82
2023/02/17 03:21:56;;;;;;;4.28;3.28;;;12.40;99.90;;;;;;4920109;29;20053;-82
2023/02/17 03:24:50;;;;;;;;;;;;;;;;;;;;;
2023/02/17 03:27:16;;;;;;;3.85;3.22;;;12.50;99.90;;;;;;4916375;29;20159;-87
2023/02/17 03:29:42;;;;;;;4.18;3.22;;;12.40;99.90;;;;;;4886339;29;20064;-84
2023/02/17 03:32:08;;;;;;;4.53;3.45;;;12.40;99.90;;;;;;4903086;29;20035;-84
2023/02/17 03:34:33;;;;;;;6.03;4.05;;;12.40;99.90;;;;;;4887655;29;20021;-84
2023/02/17 03:36:59;;;;;;;3.50;3.00;;;12.40;99.90;;;;;;4907659;29;20029;-85
2023/02/17 03:39:26;;;;;;;4.78;3.72;;;12.40;99.90;;;;;;4914543;29;20379;-85
2023/02/17 03:41:52;;;;;;;4.72;3.55;;;12.40;99.90;;;;;;4903903;29;20071;-83
2023/02/17 03:44:18;;;;;;;4.88;3.67;;;12.40;99.90;;;;;;4916970;29;20032;-83
2023/02/17 03:46:45;;;;;;;4.82;3.80;;;12.30;99.90;;;;;;4902969;29;20116;-83
2023/02/17 03:49:11;;;;;;;4.10;3.10;;;12.40;99.90;;;;;;4915059;29;20048;-83
2023/02/17 03:51:36;;;;;;;4.68;3.45;;;12.40;99.90;;;;;;4922122;29;20060;-83
2023/02/17 03:54:02;;;;;;;4.93;3.80;;;12.40;99.90;;;;;;4920504;29;20029;-83
2023/02/17 03:56:28;;;;;;;3.70;2.92;;;12.30;99.90;;;;;;4898089;29;20036;-84
2023/02/17 03:58:54;;;;;;;4.05;3.28;;;12.30;99.90;;;;;;4889017;29;20115;-84
2023/02/17 04:01:19;;;;;;;4.32;3.60;;;12.30;99.90;;;;;;4886521;29;20120;-85
2023/02/17 04:03:45;;;;;;;3.92;3.00;;;12.30;99.90;;;;;;4890918;29;20489;-84
2023/02/17 04:06:11;;;;;;;3.80;2.83;;;12.30;99.90;;;;;;4888103;29;20141;-87
2023/02/17 04:08:38;;;;;;;4.50;2.95;;;12.30;99.90;;;;;;4913422;29;20048;-87
2023/02/17 04:11:05;;;;;;;4.35;3.13;;;12.30;99.90;;;;;;4902615;29;20032;-88
2023/02/17 04:13:31;;;;;;;3.47;3.10;;;12.30;99.90;;;;;;4901550;29;20032;-84
2023/02/17 04:16:00;;;;;;;3.60;3.22;;;12.30;99.90;;;;;;4911931;29;20110;-84
2023/02/17 04:18:26;;;;;;;4.47;3.25;;;12.30;99.90;;;;;;4920527;29;20036;-84
2023/02/17 04:20:53;;;;;;;4.25;3.20;;;12.30;99.90;;;;;;4909220;29;20033;-82
2023/02/17 04:23:19;;;;;;;3.65;2.72;;;12.30;99.90;;;;;;4901791;29;20080;-82
2023/02/17 04:25:46;;;;;;;4.20;3.13;;;12.30;99.90;;;;;;4912968;29;20035;-83
2023/02/17 04:28:12;;;;;;;4.07;3.40;;;12.30;99.90;;;;;;4908975;29;20029;-82
2023/02/17 04:30:38;;;;;;;5.55;3.55;;;12.20;99.90;;;;;;4904009;29;20036;-85
2023/02/17 04:33:04;;;;;;;4.10;3.20;;;12.20;99.90;;;;;;4896382;29;20027;-87
2023/02/17 04:35:30;;;;;;;4.50;3.38;;;12.20;99.90;;;;;;4903393;29;20035;-84
2023/02/17 04:37:56;;;;;;;3.60;2.90;;;12.20;99.90;;;;;;4902013;29;20233;-81
2023/02/17 04:40:22;;;;;;;4.20;3.25;;;12.20;99.90;;;;;;4885457;29;20040;-81
2023/02/17 04:42:47;;;;;;;4.35;3.53;;;12.20;99.90;;;;;;4896715;29;20028;-81
2023/02/17 04:45:13;;;;;;;3.92;3.30;;;12.20;99.90;;;;;;4918034;29;20040;-82
2023/02/17 04:47:39;;;;;;;4.60;3.20;;;12.20;99.90;;;;;;4917775;29;20143;-81
2023/02/17 04:50:07;;;;;;;4.55;3.60;;;12.20;99.90;;;;;;4906444;29;20107;-81
2023/02/17 04:52:33;;;;;;;4.15;3.15;;;12.20;99.90;;;;;;4903621;29;20084;-80
2023/02/17 04:54:58;;;;;;;4.85;3.30;;;12.20;99.90;;;;;;4920319;29;20032;-82
2023/02/17 04:57:24;;;;;;;3.75;2.75;;;12.20;99.90;;;;;;4919062;29;20024;-81
2023/02/17 04:59:50;;;;;;;3.97;2.95;;;12.20;99.90;;;;;;4901984;29;20069;-82
2023/02/17 05:02:16;;;;;;;4.07;2.70;;;12.20;99.90;;;;;;4898338;29;20036;-84
2023/02/17 05:04:42;;;;;;;3.20;2.33;;;12.20;99.90;;;;;;4885243;29;20036;-84
2023/02/17 05:07:08;;;;;;;3.50;2.50;;;12.20;99.90;;;;;;4898255;29;20551;-84
2023/02/17 05:09:33;;;;;;;3.00;2.50;;;12.20;99.90;;;;;;4898498;29;20036;-84
2023/02/17 05:11:59;;;;;;;2.47;2.20;;;12.20;99.90;;;;;;4917125;29;20095;-84
2023/02/17 05:14:25;;;;;;;3.30;2.45;;;12.20;99.90;;;;;;4902365;29;20024;-85
2023/02/17 05:16:50;;;;;;;3.72;2.65;;;12.20;99.90;;;;;;4912201;29;20020;-84
2023/02/17 05:19:16;;;;;;;3.35;2.72;;;12.20;99.90;;;;;;4919257;29;20059;-84
2023/02/17 05:21:42;;;;;;;3.25;2.60;;;12.20;99.90;;;;;;4900399;29;20059;-84
2023/02/17 05:24:07;;;;;;;3.42;2.65;;;12.20;99.90;;;;;;4887550;29;20393;-84
2023/02/17 05:26:33;;;;;;;2.72;2.03;;;12.10;99.90;;;;;;4916620;29;20036;-84
2023/02/17 05:33:13;;;;;;;2.97;2.38;;;12.20;99.90;;;;;;4845918;29;20049;-88
2023/02/17 05:35:39;;;;;;;2.72;2.03;;;12.20;99.90;;;;;;4799368;29;20030;-87
2023/02/17 05:38:04;;;;;;;3.15;2.17;;;12.20;99.90;;;;;;4829158;29;20066;-88
2023/02/17 05:40:30;;;;;;;2.30;1.75;;;12.20;99.90;;;;;;4855129;29;20033;-88
2023/02/17 05:42:56;;;;;;;3.97;2.17;;;12.20;99.90;;;;;;4918427;29;20266;-87
2023/02/17 05:45:22;;;;;;;2.42;1.80;;;12.20;99.90;;;;;;4907700;29;20024;-86
2023/02/17 05:47:47;;;;;;;2.42;1.95;;;12.20;99.90;;;;;;4894999;29;20496;-87
2023/02/17 05:50:13;;;;;;;2.75;1.90;;;12.20;99.90;;;;;;4913874;29;20084;-86
2023/02/17 05:52:39;;;;;;;2.08;1.58;;;12.20;99.90;;;;;;4897476;29;20386;-84
2023/02/17 05:55:05;;;;;;;2.65;1.70;;;12.20;99.90;;;;;;4920966;29;20024;-84
2023/02/17 05:57:31;;;;;;;1.75;1.50;;;12.20;99.90;;;;;;4894041;29;20035;-84
2023/02/17 05:59:56;;;;;;;1.80;1.55;;;12.30;99.90;;;;;;4919491;29;20035;-84
2023/02/17 06:02:22;;;;;;;2.50;1.70;;;12.30;99.90;;;;;;4899504;29;20032;-84
2023/02/17 06:04:48;;;;;;;2.30;1.80;;;12.30;99.90;;;;;;4913216;29;20042;-83
2023/02/17 06:07:13;;;;;;;2.45;1.80;;;12.30;99.90;;;;;;4903903;29;20087;-83
2023/02/17 06:09:39;;;;;;;1.98;1.65;;;12.30;99.90;;;;;;4912188;29;20025;-84
2023/02/17 06:12:05;;;;;;;2.00;1.52;;;12.30;99.90;;;;;;4933385;29;20445;-85
2023/02/17 06:14:31;;;;;;;1.85;1.40;;;12.30;99.90;;;;;;4937062;29;20020;-85
2023/02/17 06:16:56;;;;;;;2.42;1.58;;;12.30;99.90;;;;;;4924410;29;20035;-85
2023/02/17 06:19:22;;;;;;;1.90;1.23;;;12.30;99.90;;;;;;4903599;29;20118;-85
2023/02/17 06:21:48;;;;;;;2.10;1.50;;;12.40;99.90;;;;;;4907689;29;20125;-85
2023/02/17 06:24:14;;;;;;;2.22;1.58;;;12.30;99.90;;;;;;4896670;29;20500;-84
2023/02/17 06:26:40;;;;;;;2.10;1.60;;;12.40;99.90;;;;;;4923089;29;20580;-85
2023/02/17 06:29:06;;;;;;;2.28;1.55;;;12.40;99.90;;;;;;4914612;29;20493;-84
2023/02/17 06:31:32;;;;;;;2.20;1.63;;;12.40;99.90;;;;;;4912888;29;20032;-84
2023/02/17 06:34:18;;;;;;;2.78;1.48;;;12.40;99.90;;;;;;4904391;29;20020;-85
2023/02/17 06:43:50;;;;;;;1.95;1.30;;;12.50;99.90;;;;;;4811525;29;20034;-85
2023/02/17 06:46:26;;;;;;;2.42;1.55;;;12.50;99.90;;;;;;4893125;29;20127;-85
2023/02/17 06:48:52;;;;;;;2.05;1.40;;;12.40;99.90;;;;;;4899567;29;20092;-81
2023/02/17 06:51:18;;;;;;;1.75;1.45;;;12.40;99.90;;;;;;4920957;29;20032;-81
2023/02/17 06:53:43;;;;;;;2.58;1.88;;;12.40;99.90;;;;;;4904912;29;20028;-84
2023/02/17 06:56:09;;;;;;;3.38;1.77;;;12.50;99.90;;;;;;4912553;29;20029;-85
2023/02/17 06:58:36;;;;;;;2.42;1.85;;;12.50;99.90;;;;;;4903971;29;20048;-86
2023/02/17 07:01:02;;;;;;;2.20;1.70;;;12.50;99.90;;;;;;4887249;29;20033;-84
2023/02/17 07:03:28;;;;;;;2.20;1.77;;;12.50;99.90;;;;;;4895502;29;20036;-85
2023/02/17 07:06:00;;;;;;;2.33;1.73;;;12.50;99.90;;;;;;4889180;29;20122;-84
2023/02/17 07:08:29;;;;;;;2.40;1.55;;;12.50;99.90;;;;;;4888804;29;20493;-85
2023/02/17 07:10:55;;;;;;;2.40;1.70;;;12.60;99.90;;;;;;4887705;29;20033;-85
2023/02/17 07:13:21;;;;;;;2.63;1.73;;;12.60;99.90;;;;;;4888002;29;20374;-82
2023/02/17 07:15:47;;;;;;;4.35;1.73;;;12.60;99.90;;;;;;4890992;29;20058;-82
2023/02/17 07:18:12;;;;;;;2.60;1.70;;;12.60;99.90;;;;;;4902099;29;20061;-86
2023/02/17 07:20:41;;;;;;;1.85;1.65;;;12.60;99.90;;;;;;4885028;29;20028;-84
2023/02/17 07:23:07;;;;;;;2.05;1.70;;;12.60;99.90;;;;;;4886156;29;20044;-84
2023/02/17 07:25:33;;;;;;;2.53;1.98;;;12.60;99.90;;;;;;4886125;29;20410;-83
2023/02/17 07:27:59;;;;;;;3.30;1.80;;;12.60;99.90;;;;;;4911616;29;20036;-84
2023/02/17 07:30:30;;;;;;;2.50;1.60;;;12.60;99.90;;;;;;4889749;29;20095;-89
2023/02/17 07:33:11;;;;;;;2.08;1.58;;;12.60;99.90;;;;;;4908950;29;20020;-87
2023/02/17 07:35:44;;;;;;;2.47;1.83;;;12.60;99.90;;;;;;4916597;29;20540;-82
2023/02/17 07:42:13;;;;;;;;;;;;;;;;;;;;;
2023/02/17 07:44:39;;;;;;;1.50;1.20;;;12.60;99.90;;;;;;4920433;29;20198;-86
2023/02/17 07:50:45;;;;;;;2.60;1.40;;;12.60;99.90;;;;;;4860362;29;20049;-84
2023/02/17 07:53:11;;;;;;;2.45;1.65;;;12.60;99.90;;;;;;4834977;29;20026;-83
2023/02/17 07:55:38;;;;;;;2.40;1.60;;;12.60;99.90;;;;;;4876707;29;20498;-84
2023/02/17 07:58:03;;;;;;;1.90;1.60;;;12.60;99.90;;;;;;4908436;29;20046;-85
2023/02/17 08:00:29;;;;;;;1.98;1.38;;;12.60;99.90;;;;;;4894061;29;20082;-83
2023/02/17 08:02:55;;;;;;;1.77;1.38;;;12.70;99.90;;;;;;4898476;29;20032;-83
2023/02/17 08:05:20;;;;;;;1.73;1.55;;;12.70;99.90;;;;;;4912777;29;20029;-84
2023/02/17 08:07:46;;;;;;;1.65;1.52;;;12.70;99.90;;;;;;4912477;29;20059;-84
2023/02/17 08:17:10;;;;;;;2.28;1.60;;;12.60;99.90;;;;;;4850012;29;20051;-86
2023/02/17 08:19:40;;;;;;;2.25;1.70;;;12.60;99.90;;;;;;4853785;29;20483;-86
2023/02/17 08:22:11;;;;;;;2.17;1.50;;;12.60;99.90;;;;;;4879877;29;20044;-86
2023/02/17 08:25:11;;;;;;;2.20;1.70;;;12.70;99.90;;;;;;4874058;29;20040;-86
2023/02/17 08:28:11;;;;;;;2.55;1.70;;;12.70;99.90;;;;;;4816922;29;20035;-87
2023/02/17 08:30:37;;;;;;;2.35;1.40;;;12.60;99.90;;;;;;4822353;29;20102;-81
2023/02/17 08:33:04;;;;;;;1.80;1.40;;;12.60;99.90;;;;;;4877014;29;20040;-80
2023/02/17 08:35:30;;;;;;;2.90;1.63;;;12.60;99.90;;;;;;4884683;29;20398;-82
2023/02/17 08:37:56;;;;;;;2.35;1.60;;;12.60;99.90;;;;;;4910930;29;20028;-82
2023/02/17 08:40:22;;;;;;;3.35;1.50;;;12.70;99.90;;;;;;4908049;29;20083;-81
2023/02/17 08:42:48;;;;;;;2.63;1.70;;;12.60;99.90;;;;;;4910770;29;20040;-82
2023/02/17 08:45:14;;;;;;;1.80;1.60;;;12.60;99.90;;;;;;4893509;29;20032;-82
2023/02/17 08:47:40;;;;;;;3.28;1.75;;;12.70;99.90;;;;;;4881363;29;20044;-77
2023/02/17 08:50:08;;;;;;;3.00;1.70;;;12.70;99.90;;;;;;4888091;29;20499;-78
2023/02/17 08:52:34;;;;;;;2.80;1.90;;;12.80;99.90;;;;;;4875457;29;20025;-80
2023/02/17 08:55:03;;;;;;;1.90;1.52;;;12.80;99.90;;;;;;4890924;29;20068;-83
2023/02/17 08:57:38;;;;;;;2.00;1.70;;;12.80;99.90;;;;;;4874236;29;20035;-84
2023/02/17 09:00:07;;;;;;;2.78;1.88;;;12.80;99.90;;;;;;4895317;29;20528;-83
2023/02/17 09:05:41;;;;;;;2.22;1.63;;;12.90;99.90;;;;;;4887172;29;20034;-80
2023/02/17 09:08:07;;;;;;;2.20;1.58;;;12.90;99.90;;;;;;4894855;29;20350;-80
2023/02/17 09:10:33;;;;;;;2.83;1.95;;;12.90;99.90;;;;;;4877364;29;20108;-83
2023/02/17 09:19:43;;;;;;;2.00;1.80;;;13.00;99.90;;;;;;4973603;23;20127;-85
2023/02/17 09:22:09;;;;;;;3.15;2.10;;;13.00;99.90;;;;;;4913332;29;20032;-85
2023/02/17 09:25:20;;;;;;;3.88;1.80;;;13.00;99.90;;;;;;4893617;29;20032;-83
2023/02/17 09:28:12;;;;;;;2.95;1.92;;;13.00;99.90;;;;;;4836364;29;20069;-84
2023/02/17 09:30:39;;;;;;;2.65;1.95;;;13.00;99.90;;;;;;4883828;29;20115;-72
2023/02/17 09:33:04;;;;;;;3.47;2.03;;;13.00;99.90;;;;;;4898232;29;20033;-69
2023/02/17 09:35:31;;;;;;;2.50;1.90;;;13.00;99.90;;;;;;4902934;29;20027;-71
2023/02/17 09:37:57;;;;;;;4.80;1.75;;;13.00;99.90;;;;;;4899539;29;20437;-69
2023/02/17 09:40:35;;;;;;;2.92;1.80;;;13.10;99.90;;;;;;4882054;29;20024;-69
2023/02/17 09:43:01;;;;;;;2.58;1.83;;;13.10;99.90;;;;;;4902233;29;20123;-70
2023/02/17 09:45:33;;;;;;;2.45;1.77;;;13.20;99.90;;;;;;4902255;29;20033;-68
2023/02/17 09:48:04;;;;;;;2.30;1.75;;;13.20;99.90;;;;;;4902302;29;20024;-68
2023/02/17 09:50:53;;;;;;;2.67;1.65;;;13.30;99.90;;;;;;4903952;29;20040;-67
2023/02/17 09:53:40;;;;;;;2.60;1.80;;;13.30;99.90;;;;;;4901196;29;20115;-71
2023/02/17 09:56:11;;;;;;;3.67;2.20;;;13.40;99.90;;;;;;4884953;29;20020;-71
2023/02/17 09:58:46;;;;;;;3.20;2.03;;;13.40;99.90;;;;;;4899611;29;20060;-71
2023/02/17 10:01:19;;;;;;;2.50;1.80;;;13.30;99.90;;;;;;4884086;29;20036;-68
2023/02/17 10:04:01;;;;;;;3.05;1.80;;;13.40;99.90;;;;;;4902579;29;20036;-68
2023/02/17 10:06:29;;;;;;;2.65;1.90;;;13.40;99.90;;;;;;4902353;29;20055;-68
2023/02/17 10:09:17;;;;;;;3.63;2.00;;;13.40;99.90;;;;;;4904445;29;20028;-73
2023/02/17 10:12:08;;;;;;;2.60;1.65;;;13.40;99.90;;;;;;4902672;29;20092;-71
2023/02/17 10:15:00;;;;;;;2.17;1.50;;;13.40;99.90;;;;;;4907668;29;20029;-73
2023/02/17 10:17:26;;;;;;;3.10;1.88;;;13.50;99.90;;;;;;4883928;29;20620;-74
2023/02/17 10:19:55;;;;;;;2.45;2.05;;;13.50;99.90;;;;;;4901787;29;20088;-70
2023/02/17 10:22:23;;;;;;;2.90;1.73;;;13.50;99.90;;;;;;4900419;29;20028;-76
2023/02/17 10:24:49;;;;;;;3.63;1.70;;;13.60;99.90;;;;;;4902289;29;20112;-71
2023/02/17 10:27:24;;;;;;;2.58;2.03;;;13.60;99.90;;;;;;4901418;29;20033;-73
2023/02/17 10:30:14;;;;;;;2.88;1.67;;;13.60;99.90;;;;;;4898783;29;20026;-72
2023/02/17 10:32:59;;;;;;;3.00;1.90;;;13.50;99.90;;;;;;4899298;29;20037;-73
2023/02/17 10:35:51;;;;;;;2.20;1.75;;;13.60;99.90;;;;;;4895609;29;20013;-74
2023/02/17 10:38:32;;;;;;;1.65;1.42;;;13.60;99.90;;;;;;4885693;29;20033;-73
2023/02/17 10:41:01;;;;;;;2.45;1.83;;;13.70;99.90;;;;;;4899485;29;20033;-70
2023/02/17 10:43:30;;;;;;;1.60;1.30;;;13.70;99.90;;;;;;4887097;29;20649;-74
2023/02/17 10:45:58;;;;;;;1.80;1.58;;;13.80;99.90;;;;;;4895814;29;20545;-72
2023/02/17 10:48:41;;;;;;;2.05;1.70;;;13.80;99.90;;;;;;4885796;29;20029;-71
2023/02/17 10:51:17;;;;;;;2.80;1.83;;;13.80;99.90;;;;;;4900194;29;20021;-71
2023/02/17 10:53:47;;;;;;;1.90;1.50;;;13.80;99.90;;;;;;4876896;29;20033;-71
2023/02/17 10:56:20;;;;;;;2.33;1.77;;;13.80;99.90;;;;;;4910517;29;20515;-69
2023/02/17 10:59:06;;;;;;;2.88;1.70;;;13.80;99.90;;;;;;4906188;29;20100;-71
2023/02/17 11:01:32;;;;;;;2.50;1.50;;;13.80;99.90;;;;;;4901185;29;20481;-75
2023/02/17 11:04:01;;;;;;;2.80;1.50;;;13.90;99.90;;;;;;4903807;29;20047;-76
2023/02/17 11:06:28;;;;;;;2.70;1.95;;;13.90;99.90;;;;;;4901321;29;20035;-72
2023/02/17 11:09:02;;;;;;;2.10;1.60;;;14.00;99.90;;;;;;4890493;29;20528;-75
2023/02/17 11:11:30;;;;;;;3.25;1.88;;;14.00;99.90;;;;;;4885468;29;20036;-72
2023/02/17 11:14:05;;;;;;;2.17;1.88;;;14.10;99.90;;;;;;4891311;29;20028;-70
2023/02/17 11:16:38;;;;;;;2.80;1.60;;;14.10;99.90;;;;;;4897166;29;20052;-72
2023/02/17 11:19:05;;;;;;;;;;;14.10;99.90;;;;;;4901439;29;20047;-76
2023/02/17 11:21:36;;;;;;;2.03;1.38;;;14.20;99.90;;;;;;4901252;29;19907;-71
2023/02/17 11:24:04;;;;;;;3.10;1.55;;;14.20;99.90;;;;;;4900218;29;20036;-71
2023/02/17 11:26:33;;;;;;;3.17;1.80;;;14.20;99.90;;;;;;4901253;29;20047;-71
2023/02/17 11:29:16;;;;;;;2.80;1.60;;;14.30;99.90;;;;;;4884454;29;20557;-71
2023/02/17 11:32:05;;;;;;;2.05;1.75;;;14.40;99.90;;;;;;4884179;29;20032;-72
2023/02/17 11:34:33;;;;;;;2.03;1.63;;;14.40;99.90;;;;;;4885294;29;20040;-72
2023/02/17 11:37:00;;;;;;;2.40;1.63;;;14.40;99.90;;;;;;4901831;29;20564;-69
2023/02/17 11:39:27;;;;;;;2.22;1.60;;;14.50;99.90;;;;;;4885330;29;20033;-70
2023/02/17 11:41:52;;;;;;;2.42;1.80;;;14.60;99.90;;;;;;4901125;29;20051;-70
2023/02/17 11:44:28;;;;;;;2.58;1.90;;;14.80;99.90;;;;;;4902143;29;20036;-70
2023/02/17 11:47:14;;;;;;;2.47;1.63;;;14.70;99.90;;;;;;4902087;29;20107;-70
2023/02/17 11:49:44;;;;;;;1.98;1.60;;;14.80;99.90;;;;;;4902015;29;20442;-69
2023/02/17 11:52:34;;;;;;;3.60;1.40;;;14.90;99.90;;;;;;4902138;29;20139;-70
2023/02/17 11:55:25;;;;;;;1.80;1.42;;;14.90;99.90;;;;;;4885345;29;20111;-71
2023/02/17 11:58:20;;;;;;;2.03;1.48;;;14.80;99.90;;;;;;4904564;29;20374;-71
2023/02/17 12:00:58;;;;;;;2.00;1.35;;;14.80;99.90;;;;;;4900725;29;20075;-71
2023/02/17 12:04:03;;;;;;;1.85;1.38;;;14.90;99.90;;;;;;4888779;29;20044;-72
2023/02/17 12:06:56;;;;;;;2.38;1.40;;;15.00;99.90;;;;;;4901456;29;20034;-70
2023/02/17 12:09:22;;;;;;;;;;;15.00;99.90;;;;;;4898074;29;20124;-69
2023/02/17 12:11:58;;;;;;;2.47;1.40;;;15.00;99.90;;;;;;4900786;29;19950;-69
2023/02/17 12:14:51;;;;;;;2.95;1.52;;;15.10;99.90;;;;;;4884051;29;20021;-71
2023/02/17 12:17:35;;;;;;;2.13;1.30;;;15.10;99.90;;;;;;4901347;29;20034;-72
2023/02/17 12:20:09;;;;;;;2.05;1.70;;;15.20;99.90;;;;;;4880378;29;20060;-70
2023/02/17 12:22:43;;;;;;;2.88;1.73;;;15.30;99.90;;;;;;4898771;29;20039;-73
2023/02/17 12:25:24;;;;;;;2.63;1.90;;;15.50;99.90;;;;;;4900311;29;20036;-74
2023/02/17 12:28:02;;;;;;;2.30;1.90;;;15.50;99.90;;;;;;4905948;29;20502;-74
2023/02/17 12:30:54;;;;;;;2.72;2.20;;;15.60;99.90;;;;;;4892565;29;20028;-75
2023/02/17 12:33:44;;;;;;;1.98;1.58;;;15.60;99.90;;;;;;4912091;29;20065;-75
2023/02/17 12:36:14;;;;;;;3.45;1.92;;;15.60;99.90;;;;;;4900132;29;20087;-75
2023/02/17 12:38:48;;;;;;;4.03;2.70;;;15.70;99.90;;;;;;4912412;29;20051;-75
2023/02/17 12:41:42;;;;;;;6.13;3.92;;;15.70;99.90;;;;;;4919760;29;20024;-72
2023/02/17 12:44:23;;;;;;;3.58;2.45;;;15.70;99.90;;;;;;4907401;29;20531;-73
2023/02/17 12:46:52;;;;;;;4.18;2.55;;;15.70;99.90;;;;;;4879135;29;20035;-71
2023/02/17 12:49:42;;;;;;;2.75;1.92;;;15.70;99.90;;;;;;4900732;29;20032;-75
2023/02/17 12:52:31;;;;;;;2.90;2.28;;;15.60;99.90;;;;;;4889422;29;20064;-75
2023/02/17 12:55:10;;;;;;;2.88;2.33;;;15.70;99.90;;;;;;4901518;29;20029;-76
2023/02/17 12:57:59;;;;;;;4.60;2.60;;;15.60;99.90;;;;;;4906953;29;20017;-74
2023/02/17 13:00:40;;;;;;;3.22;2.20;;;15.60;99.90;;;;;;4898378;29;20036;-75
2023/02/17 13:03:07;;;;;;;4.53;2.85;;;15.70;99.90;;;;;;4892648;29;20116;-74
2023/02/17 13:06:06;;;;;;;4.07;2.92;;;15.80;99.90;;;;;;4906178;29;20060;-74
2023/02/17 13:09:07;;;;;;;3.72;2.92;;;15.70;99.90;;;;;;4871883;29;20083;-73
2023/02/17 13:11:34;;;;;;;5.50;3.47;;;15.70;99.90;;;;;;4902288;29;20131;-73
2023/02/17 13:14:24;;;;;;;3.97;2.85;;;15.70;99.90;;;;;;4911648;29;20047;-68
2023/02/17 13:16:51;;;;;;;3.75;2.63;;;15.70;99.90;;;;;;4916579;29;20476;-71
2023/02/17 13:19:31;;;;;;;3.00;2.40;;;15.70;99.90;;;;;;4925189;29;20059;-70
2023/02/17 13:21:58;;;;;;;2.80;1.92;;;15.50;99.90;;;;;;4908250;29;20083;-71
2023/02/17 13:24:35;;;;;;;2.97;2.03;;;15.40;99.90;;;;;;4923109;29;20523;-70
2023/02/17 13:27:31;;;;;;;2.15;1.73;;;15.40;99.90;;;;;;4916850;29;20150;-71
2023/02/17 13:30:10;;;;;;;2.70;1.60;;;15.30;99.90;;;;;;4897467;29;20409;-71
2023/02/17 13:32:37;;;;;;;2.90;2.03;;;15.30;99.90;;;;;;4912762;29;20052;-70
2023/02/17 13:35:16;;;;;;;2.65;1.95;;;15.30;99.90;;;;;;4916274;29;21281;-71
2023/02/17 13:37:45;;;;;;;2.50;2.00;;;15.30;99.90;;;;;;4900987;29;20830;-69
2023/02/17 13:40:19;;;;;;;2.40;1.80;;;15.30;99.90;;;;;;4904230;29;20057;-69
2023/02/17 13:42:49;;;;;;;4.70;2.58;;;15.40;99.90;;;;;;4905128;29;20036;-71
2023/02/17 13:45:15;;;;;;;3.55;2.35;;;15.40;99.90;;;;;;4906014;29;20028;-71
2023/02/17 13:47:41;;;;;;;4.18;2.70;;;15.40;99.90;;;;;;4906121;29;20033;-70
2023/02/17 13:50:27;;;;;;;4.15;2.63;;;15.40;99.90;;;;;;4905720;29;20100;-72
2023/02/17 13:52:53;;;;;;;3.90;2.55;;;15.40;99.90;;;;;;4883246;29;20525;-72
2023/02/17 13:55:19;;;;;;;3.50;2.00;;;15.50;99.90;;;;;;4905883;29;20139;-72
2023/02/17 13:57:50;;;;;;;3.00;2.30;;;15.50;99.90;;;;;;4904853;29;20157;-72
2023/02/17 14:00:21;;;;;;;4.15;2.45;;;15.40;99.90;;;;;;4905909;29;20040;-74
2023/02/17 14:03:06;;;;;;;4.25;2.13;;;15.50;99.90;;;;;;4886534;29;20043;-75
2023/02/17 14:05:32;;;;;;;2.25;1.90;;;15.50;99.90;;;;;;4907316;29;20057;-74